sensor_id;sensor_type;location;lat;lon;timestamp;pressure;altitude;pressure_sealevel;temperature;humidity
61478;BME280;47345;52.334;10.392;2023-02-17T00:02:09;101122.20;;;6.98;86.27
61478;BME280;47345;52.334;10.392;2023-02-17T00:04:42;101118.60;;;6.98;86.42
61478;BME280;47345;52.334;10.392;2023-02-17T00:07:14;101120.30;;;6.99;86.54
61478;BME280;47345;52.334;10.392;2023-02-17T00:09:47;101117.71;;;6.99;86.58
61478;BME280;47345;52.334;10.392;2023-02-17T00:12:20;101116.05;;;7.00;86.57
61478;BME280;47345;52.334;10.392;2023-02-17T00:14:51;101112.85;;;7.01;86.53
61478;BME280;47345;52.334;10.392;2023-02-17T00:17:24;101114.92;;;7.02;86.54
61478;BME280;47345;52.334;10.392;2023-02-17T00:19:57;101112.09;;;7.02;86.62
61478;BME280;47345;52.334;10.392;2023-02-17T00:22:31;101110.84;;;7.04;86.44
61478;BME280;47345;52.334;10.392;2023-02-17T00:25:03;101113.79;;;7.05;86.49
61478;BME280;47345;52.334;10.392;2023-02-17T00:27:35;101112.88;;;7.07;86.58
61478;BME280;47345;52.334;10.392;2023-02-17T00:30:10;101111.25;;;7.08;86.58
61478;BME280;47345;52.334;10.392;2023-02-17T00:32:41;101117.86;;;7.11;86.68
61478;BME280;47345;52.334;10.392;2023-02-17T00:35:16;101114.42;;;7.12;86.89
61478;BME280;47345;52.334;10.392;2023-02-17T00:37:49;101106.55;;;7.15;86.84
61478;BME280;47345;52.334;10.392;2023-02-17T00:40:21;101107.94;;;7.17;86.77
61478;BME280;47345;52.334;10.392;2023-02-17T00:42:55;101101.88;;;7.19;86.93
61478;BME280;47345;52.334;10.392;2023-02-17T00:45:28;101109.76;;;7.22;87.13
61478;BME280;47345;52.334;10.392;2023-02-17T00:48:01;101109.51;;;7.23;87.26
61478;BME280;47345;52.334;10.392;2023-02-17T00:50:34;101109.23;;;7.26;87.24
61478;BME280;47345;52.334;10.392;2023-02-17T00:53:08;101108.77;;;7.29;87.29
61478;BME280;47345;52.334;10.392;2023-02-17T00:55:39;101109.55;;;7.31;87.53
61478;BME280;47345;52.334;10.392;2023-02-17T00:58:13;101105.05;;;7.34;87.60
61478;BME280;47345;52.334;10.392;2023-02-17T01:00:45;101100.42;;;7.37;87.74
61478;BME280;47345;52.334;10.392;2023-02-17T01:03:18;101098.23;;;7.38;87.69
61478;BME280;47345;52.334;10.392;2023-02-17T01:05:50;101102.58;;;7.40;87.83
61478;BME280;47345;52.334;10.392;2023-02-17T01:08:23;101092.27;;;7.43;87.93
61478;BME280;47345;52.334;10.392;2023-02-17T01:10:56;101088.92;;;7.45;88.09
61478;BME280;47345;52.334;10.392;2023-02-17T01:13:29;101085.05;;;7.47;88.10
61478;BME280;47345;52.334;10.392;2023-02-17T01:16:01;101082.23;;;7.50;88.16
61478;BME280;47345;52.334;10.392;2023-02-17T01:18:35;101077.52;;;7.51;88.34
61478;BME280;47345;52.334;10.392;2023-02-17T01:21:16;101074.90;;;7.53;88.50
61478;BME280;47345;52.334;10.392;2023-02-17T01:23:49;101074.68;;;7.55;88.70
61478;BME280;47345;52.334;10.392;2023-02-17T01:26:23;101073.70;;;7.58;88.91
61478;BME280;47345;52.334;10.392;2023-02-17T01:28:57;101070.07;;;7.59;88.68
61478;BME280;47345;52.334;10.392;2023-02-17T01:31:29;101071.35;;;7.60;88.81
61478;BME280;47345;52.334;10.392;2023-02-17T01:34:02;101067.94;;;7.62;88.91
61478;BME280;47345;52.334;10.392;2023-02-17T01:36:35;101063.41;;;7.63;88.90
61478;BME280;47345;52.334;10.392;2023-02-17T01:39:08;101056.73;;;7.64;88.93
61478;BME280;47345;52.334;10.392;2023-02-17T01:41:40;101044.41;;;7.66;89.20
61478;BME280;47345;52.334;10.392;2023-02-17T01:44:15;101041.26;;;7.68;89.30
61478;BME280;47345;52.334;10.392;2023-02-17T01:46:49;101035.25;;;7.70;89.45
61478;BME280;47345;52.334;10.392;2023-02-17T01:49:26;101028.74;;;7.71;89.43
61478;BME280;47345;52.334;10.392;2023-02-17T01:52:05;101021.82;;;7.73;89.50
61478;BME280;47345;52.334;10.392;2023-02-17T01:54:41;101015.13;;;7.74;89.77
61478;BME280;47345;52.334;10.392;2023-02-17T01:57:18;101007.13;;;7.76;89.93
61478;BME280;47345;52.334;10.392;2023-02-17T01:59:52;101004.74;;;7.79;90.15
61478;BME280;47345;52.334;10.392;2023-02-17T02:02:24;100996.58;;;7.81;90.32
61478;BME280;47345;52.334;10.392;2023-02-17T02:05:01;100992.91;;;7.82;90.31
61478;BME280;47345;52.334;10.392;2023-02-17T02:07:35;100991.02;;;7.85;90.53
61478;BME280;47345;52.334;10.392;2023-02-17T02:10:14;100988.12;;;7.86;90.59
61478;BME280;47345;52.334;10.392;2023-02-17T02:12:47;100987.43;;;7.87;90.58
61478;BME280;47345;52.334;10.392;2023-02-17T02:15:21;100988.28;;;7.89;90.55
61478;BME280;47345;52.334;10.392;2023-02-17T02:18:21;100989.62;;;7.90;90.52
61478;BME280;47345;52.334;10.392;2023-02-17T02:21:21;100985.41;;;7.92;90.57
61478;BME280;47345;52.334;10.392;2023-02-17T02:24:09;100984.61;;;7.93;90.65
61478;BME280;47345;52.334;10.392;2023-02-17T02:30:29;100987.50;;;7.96;91.04
61478;BME280;47345;52.334;10.392;2023-02-17T02:33:08;100990.21;;;7.97;90.97
61478;BME280;47345;52.334;10.392;2023-02-17T02:35:50;100982.06;;;7.99;91.13
61478;BME280;47345;52.334;10.392;2023-02-17T02:38:27;100982.63;;;8.00;91.42
61478;BME280;47345;52.334;10.392;2023-02-17T02:41:04;100978.50;;;8.02;91.48
61478;BME280;47345;52.334;10.392;2023-02-17T02:43:42;100981.29;;;8.02;91.37
61478;BME280;47345;52.334;10.392;2023-02-17T02:46:14;100979.87;;;8.04;91.43
61478;BME280;47345;52.334;10.392;2023-02-17T02:48:47;100978.09;;;8.05;91.62
61478;BME280;47345;52.334;10.392;2023-02-17T02:51:29;100971.41;;;8.06;91.44
61478;BME280;47345;52.334;10.392;2023-02-17T02:54:26;100968.57;;;8.07;91.65
61478;BME280;47345;52.334;10.392;2023-02-17T02:57:17;100955.84;;;8.07;91.74
61478;BME280;47345;52.334;10.392;2023-02-17T03:00:03;100952.09;;;8.08;91.73
61478;BME280;47345;52.334;10.392;2023-02-17T03:02:43;100947.31;;;8.08;91.71
61478;BME280;47345;52.334;10.392;2023-02-17T03:05:21;100944.55;;;8.09;91.73
61478;BME280;47345;52.334;10.392;2023-02-17T03:07:59;100941.61;;;8.09;91.63
61478;BME280;47345;52.334;10.392;2023-02-17T03:10:33;100939.05;;;8.09;91.48
61478;BME280;47345;52.334;10.392;2023-02-17T03:13:06;100936.52;;;8.08;91.26
61478;BME280;47345;52.334;10.392;2023-02-17T03:15:40;100932.63;;;8.05;90.66
61478;BME280;47345;52.334;10.392;2023-02-17T03:18:14;100932.51;;;8.03;90.59
61478;BME280;47345;52.334;10.392;2023-02-17T03:20:48;100925.52;;;8.01;90.43
61478;BME280;47345;52.334;10.392;2023-02-17T03:23:23;100920.54;;;7.98;90.34
61478;BME280;47345;52.334;10.392;2023-02-17T03:25:55;100923.86;;;7.97;90.36
61478;BME280;47345;52.334;10.392;2023-02-17T03:28:29;100921.32;;;7.95;90.25
61478;BME280;47345;52.334;10.392;2023-02-17T03:31:01;100919.65;;;7.94;90.46
61478;BME280;47345;52.334;10.392;2023-02-17T03:33:33;100918.46;;;7.93;90.42
61478;BME280;47345;52.334;10.392;2023-02-17T03:36:07;100918.90;;;7.93;90.33
61478;BME280;47345;52.334;10.392;2023-02-17T03:38:40;100921.73;;;7.91;90.40
61478;BME280;47345;52.334;10.392;2023-02-17T03:41:12;100915.02;;;7.90;90.44
61478;BME280;47345;52.334;10.392;2023-02-17T03:43:44;100910.22;;;7.89;90.39
61478;BME280;47345;52.334;10.392;2023-02-17T03:46:17;100907.16;;;7.89;90.61
61478;BME280;47345;52.334;10.392;2023-02-17T03:48:49;100900.90;;;7.88;90.73
61478;BME280;47345;52.334;10.392;2023-02-17T03:51:22;100901.03;;;7.89;90.83
61478;BME280;47345;52.334;10.392;2023-02-17T03:53:56;100909.37;;;7.89;90.84
61478;BME280;47345;52.334;10.392;2023-02-17T03:56:29;100906.86;;;7.88;91.14
61478;BME280;47345;52.334;10.392;2023-02-17T03:59:02;100906.65;;;7.89;91.27
61478;BME280;47345;52.334;10.392;2023-02-17T04:01:34;100900.04;;;7.89;91.26
61478;BME280;47345;52.334;10.392;2023-02-17T04:04:06;100887.60;;;7.90;91.42
61478;BME280;47345;52.334;10.392;2023-02-17T04:06:39;100885.70;;;7.91;91.49
61478;BME280;47345;52.334;10.392;2023-02-17T04:09:12;100886.50;;;7.92;91.58
61478;BME280;47345;52.334;10.392;2023-02-17T04:11:44;100884.20;;;7.93;91.67
61478;BME280;47345;52.334;10.392;2023-02-17T04:14:16;100875.69;;;7.94;91.92
61478;BME280;47345;52.334;10.392;2023-02-17T04:16:48;100874.55;;;7.94;91.73
61478;BME280;47345;52.334;10.392;2023-02-17T04:19:21;100876.90;;;7.94;91.91
61478;BME280;47345;52.334;10.392;2023-02-17T04:21:53;100885.20;;;7.95;92.01
61478;BME280;47345;52.334;10.392;2023-02-17T04:24:28;100886.91;;;7.95;92.06
61478;BME280;47345;52.334;10.392;2023-02-17T04:27:01;100887.18;;;7.96;92.22
61478;BME280;47345;52.334;10.392;2023-02-17T04:29:34;100889.25;;;7.97;92.25
61478;BME280;47345;52.334;10.392;2023-02-17T04:32:06;100882.90;;;7.99;92.41
61478;BME280;47345;52.334;10.392;2023-02-17T04:34:39;100882.62;;;8.00;92.68
61478;BME280;47345;52.334;10.392;2023-02-17T04:37:11;100882.80;;;8.01;92.76
61478;BME280;47345;52.334;10.392;2023-02-17T04:39:43;100888.48;;;8.02;92.69
61478;BME280;47345;52.334;10.392;2023-02-17T04:42:16;100887.24;;;8.04;92.72
61478;BME280;47345;52.334;10.392;2023-02-17T04:44:49;100886.21;;;8.05;93.05
61478;BME280;47345;52.334;10.392;2023-02-17T04:47:22;100879.94;;;8.05;93.01
61478;BME280;47345;52.334;10.392;2023-02-17T04:49:54;100882.77;;;8.06;93.12
61478;BME280;47345;52.334;10.392;2023-02-17T04:52:26;100883.73;;;8.07;93.39
61478;BME280;47345;52.334;10.392;2023-02-17T04:54:58;100877.03;;;8.10;93.53
61478;BME280;47345;52.334;10.392;2023-02-17T04:57:30;100870.61;;;8.12;94.03
61478;BME280;47345;52.334;10.392;2023-02-17T05:00:03;100870.90;;;8.16;94.06
61478;BME280;47345;52.334;10.392;2023-02-17T05:02:37;100870.73;;;8.18;94.34
61478;BME280;47345;52.334;10.392;2023-02-17T05:05:10;100863.90;;;8.22;94.72
61478;BME280;47345;52.334;10.392;2023-02-17T05:07:44;100866.47;;;8.25;94.82
61478;BME280;47345;52.334;10.392;2023-02-17T05:10:18;100869.41;;;8.28;94.78
61478;BME280;47345;52.334;10.392;2023-02-17T05:12:53;100866.04;;;8.30;94.96
61478;BME280;47345;52.334;10.392;2023-02-17T05:15:26;100863.02;;;8.33;95.26
61478;BME280;47345;52.334;10.392;2023-02-17T05:17:58;100867.27;;;8.35;95.52
61478;BME280;47345;52.334;10.392;2023-02-17T05:20:31;100863.70;;;8.37;95.48
61478;BME280;47345;52.334;10.392;2023-02-17T05:23:03;100860.88;;;8.40;95.38
61478;BME280;47345;52.334;10.392;2023-02-17T05:25:36;100854.90;;;8.41;95.43
61478;BME280;47345;52.334;10.392;2023-02-17T05:28:10;100852.59;;;8.42;95.60
61478;BME280;47345;52.334;10.392;2023-02-17T05:30:43;100848.42;;;8.43;95.62
61478;BME280;47345;52.334;10.392;2023-02-17T05:33:15;100844.70;;;8.44;95.69
61478;BME280;47345;52.334;10.392;2023-02-17T05:35:47;100843.25;;;8.46;95.87
61478;BME280;47345;52.334;10.392;2023-02-17T05:38:19;100839.23;;;8.47;96.12
61478;BME280;47345;52.334;10.392;2023-02-17T05:40:52;100831.70;;;8.48;96.13
61478;BME280;47345;52.334;10.392;2023-02-17T05:43:26;100821.38;;;8.49;95.99
61478;BME280;47345;52.334;10.392;2023-02-17T05:46:02;100817.11;;;8.50;96.08
61478;BME280;47345;52.334;10.392;2023-02-17T05:48:35;100824.00;;;8.52;96.16
61478;BME280;47345;52.334;10.392;2023-02-17T05:51:08;100826.27;;;8.52;96.37
61478;BME280;47345;52.334;10.392;2023-02-17T05:53:44;100819.20;;;8.53;96.31
61478;BME280;47345;52.334;10.392;2023-02-17T05:56:16;100811.46;;;8.54;96.25
61478;BME280;47345;52.334;10.392;2023-02-17T05:58:49;100808.69;;;8.55;96.36
61478;BME280;47345;52.334;10.392;2023-02-17T06:01:21;100806.25;;;8.55;96.38
61478;BME280;47345;52.334;10.392;2023-02-17T06:03:55;100809.25;;;8.56;96.34
61478;BME280;47345;52.334;10.392;2023-02-17T06:06:27;100808.89;;;8.58;96.36
61478;BME280;47345;52.334;10.392;2023-02-17T06:09:01;100804.86;;;8.58;96.27
61478;BME280;47345;52.334;10.392;2023-02-17T06:11:34;100806.23;;;8.59;96.40
61478;BME280;47345;52.334;10.392;2023-02-17T06:14:07;100808.63;;;8.60;96.38
61478;BME280;47345;52.334;10.392;2023-02-17T06:16:39;100812.74;;;8.61;96.27
61478;BME280;47345;52.334;10.392;2023-02-17T06:19:12;100806.87;;;8.61;96.43
61478;BME280;47345;52.334;10.392;2023-02-17T06:21:45;100802.05;;;8.62;96.49
61478;BME280;47345;52.334;10.392;2023-02-17T06:24:17;100795.98;;;8.62;96.43
61478;BME280;47345;52.334;10.392;2023-02-17T06:26:50;100799.27;;;8.63;96.26
61478;BME280;47345;52.334;10.392;2023-02-17T06:29:22;100797.89;;;8.64;96.50
61478;BME280;47345;52.334;10.392;2023-02-17T06:31:56;100794.88;;;8.65;96.34
61478;BME280;47345;52.334;10.392;2023-02-17T06:34:28;100797.48;;;8.66;96.35
61478;BME280;47345;52.334;10.392;2023-02-17T06:37:02;100795.45;;;8.68;96.31
61478;BME280;47345;52.334;10.392;2023-02-17T06:39:34;100791.08;;;8.69;96.10
61478;BME280;47345;52.334;10.392;2023-02-17T06:42:07;100790.33;;;8.71;96.25
61478;BME280;47345;52.334;10.392;2023-02-17T06:44:39;100793.70;;;8.73;96.16
61478;BME280;47345;52.334;10.392;2023-02-17T06:47:13;100797.22;;;8.76;96.20
61478;BME280;47345;52.334;10.392;2023-02-17T06:49:45;100799.58;;;8.77;96.05
61478;BME280;47345;52.334;10.392;2023-02-17T06:52:16;100790.58;;;8.79;95.93
61478;BME280;47345;52.334;10.392;2023-02-17T06:54:49;100782.66;;;8.81;95.92
61478;BME280;47345;52.334;10.392;2023-02-17T06:57:21;100774.52;;;8.84;95.72
61478;BME280;47345;52.334;10.392;2023-02-17T06:59:53;100769.75;;;8.85;95.42
61478;BME280;47345;52.334;10.392;2023-02-17T07:02:25;100765.48;;;8.88;95.35
61478;BME280;47345;52.334;10.392;2023-02-17T07:04:58;100762.48;;;8.90;95.06
61478;BME280;47345;52.334;10.392;2023-02-17T07:07:30;100768.39;;;8.93;95.05
61478;BME280;47345;52.334;10.392;2023-02-17T07:10:02;100765.76;;;8.94;95.00
61478;BME280;47345;52.334;10.392;2023-02-17T07:12:35;100755.54;;;8.97;94.65
61478;BME280;47345;52.334;10.392;2023-02-17T07:15:08;100745.61;;;9.00;94.56
61478;BME280;47345;52.334;10.392;2023-02-17T07:17:42;100750.27;;;9.01;94.33
61478;BME280;47345;52.334;10.392;2023-02-17T07:20:15;100749.33;;;9.04;94.09
61478;BME280;47345;52.334;10.392;2023-02-17T07:22:47;100757.66;;;9.07;93.88
61478;BME280;47345;52.334;10.392;2023-02-17T07:25:19;100768.98;;;9.09;93.76
61478;BME280;47345;52.334;10.392;2023-02-17T07:27:52;100776.01;;;9.11;93.59
61478;BME280;47345;52.334;10.392;2023-02-17T07:30:25;100770.73;;;9.12;93.31
61478;BME280;47345;52.334;10.392;2023-02-17T07:32:59;100766.05;;;9.15;93.16
61478;BME280;47345;52.334;10.392;2023-02-17T07:35:31;100768.45;;;9.18;93.12
61478;BME280;47345;52.334;10.392;2023-02-17T07:38:07;100759.59;;;9.20;93.15
61478;BME280;47345;52.334;10.392;2023-02-17T07:40:40;100753.27;;;9.23;92.96
61478;BME280;47345;52.334;10.392;2023-02-17T07:43:13;100753.89;;;9.25;92.78
61478;BME280;47345;52.334;10.392;2023-02-17T07:45:45;100741.07;;;9.27;92.74
61478;BME280;47345;52.334;10.392;2023-02-17T07:48:18;100732.23;;;9.29;92.51
61478;BME280;47345;52.334;10.392;2023-02-17T07:50:50;100722.54;;;9.31;92.48
61478;BME280;47345;52.334;10.392;2023-02-17T07:53:24;100718.02;;;9.34;92.48
61478;BME280;47345;52.334;10.392;2023-02-17T07:55:56;100721.39;;;9.35;92.28
61478;BME280;47345;52.334;10.392;2023-02-17T07:58:29;100714.73;;;9.38;92.06
61478;BME280;47345;52.334;10.392;2023-02-17T08:01:06;100707.98;;;9.39;91.93
61478;BME280;47345;52.334;10.392;2023-02-17T08:03:38;100705.10;;;9.42;91.85
61478;BME280;47345;52.334;10.392;2023-02-17T08:06:14;100704.11;;;9.44;91.56
61478;BME280;47345;52.334;10.392;2023-02-17T08:08:48;100699.36;;;9.45;91.33
61478;BME280;47345;52.334;10.392;2023-02-17T08:11:38;100698.51;;;9.49;91.22
61478;BME280;47345;52.334;10.392;2023-02-17T08:14:30;100700.38;;;9.53;91.03
61478;BME280;47345;52.334;10.392;2023-02-17T08:17:03;100698.52;;;9.56;90.79
61478;BME280;47345;52.334;10.392;2023-02-17T08:19:35;100696.66;;;9.59;90.59
61478;BME280;47345;52.334;10.392;2023-02-17T08:22:17;100693.17;;;9.62;90.48
61478;BME280;47345;52.334;10.392;2023-02-17T08:24:49;100689.21;;;9.65;90.24
61478;BME280;47345;52.334;10.392;2023-02-17T08:27:22;100683.46;;;9.68;90.13
61478;BME280;47345;52.334;10.392;2023-02-17T08:29:55;100689.40;;;9.71;89.82
61478;BME280;47345;52.334;10.392;2023-02-17T08:32:28;100687.87;;;9.75;89.61
61478;BME280;47345;52.334;10.392;2023-02-17T08:35:01;100684.23;;;9.78;89.54
61478;BME280;47345;52.334;10.392;2023-02-17T08:37:35;100680.67;;;9.80;89.26
61478;BME280;47345;52.334;10.392;2023-02-17T08:40:10;100678.29;;;9.84;89.04
61478;BME280;47345;52.334;10.392;2023-02-17T08:42:46;100667.59;;;9.88;89.03
61478;BME280;47345;52.334;10.392;2023-02-17T08:45:19;100666.04;;;9.91;89.04
61478;BME280;47345;52.334;10.392;2023-02-17T08:47:52;100665.52;;;9.94;88.96
61478;BME280;47345;52.334;10.392;2023-02-17T08:50:25;100658.79;;;9.97;88.77
61478;BME280;47345;52.334;10.392;2023-02-17T08:52:58;100665.10;;;10.00;88.63
61478;BME280;47345;52.334;10.392;2023-02-17T08:55:31;100664.40;;;10.02;88.59
61478;BME280;47345;52.334;10.392;2023-02-17T08:58:18;100653.02;;;10.06;88.57
61478;BME280;47345;52.334;10.392;2023-02-17T09:00:51;100652.37;;;10.09;88.63
61478;BME280;47345;52.334;10.392;2023-02-17T09:03:24;100652.01;;;10.12;88.58
61478;BME280;47345;52.334;10.392;2023-02-17T09:05:57;100650.25;;;10.14;88.43
61478;BME280;47345;52.334;10.392;2023-02-17T09:08:30;100651.42;;;10.16;88.47
61478;BME280;47345;52.334;10.392;2023-02-17T09:11:03;100648.73;;;10.19;88.41
61478;BME280;47345;52.334;10.392;2023-02-17T09:13:39;100647.19;;;10.21;88.36
61478;BME280;47345;52.334;10.392;2023-02-17T09:16:11;100646.31;;;10.23;88.41
61478;BME280;47345;52.334;10.392;2023-02-17T09:18:44;100643.67;;;10.25;88.43
61478;BME280;47345;52.334;10.392;2023-02-17T09:21:16;100638.11;;;10.27;88.43
61478;BME280;47345;52.334;10.392;2023-02-17T09:23:50;100631.27;;;10.29;88.34
61478;BME280;47345;52.334;10.392;2023-02-17T09:26:23;100628.49;;;10.31;88.46
61478;BME280;47345;52.334;10.392;2023-02-17T09:28:55;100633.63;;;10.33;88.41
61478;BME280;47345;52.334;10.392;2023-02-17T09:31:29;100627.74;;;10.35;88.42
61478;BME280;47345;52.334;10.392;2023-02-17T09:34:02;100624.22;;;10.37;88.25
61478;BME280;47345;52.334;10.392;2023-02-17T09:36:39;100631.48;;;10.39;88.39
61478;BME280;47345;52.334;10.392;2023-02-17T09:39:12;100630.39;;;10.41;88.30
61478;BME280;47345;52.334;10.392;2023-02-17T09:41:46;100626.09;;;10.42;88.35
61478;BME280;47345;52.334;10.392;2023-02-17T09:44:22;100626.56;;;10.44;88.37
61478;BME280;47345;52.334;10.392;2023-02-17T09:47:04;100621.23;;;10.47;88.42
61478;BME280;47345;52.334;10.392;2023-02-17T09:49:41;100621.73;;;10.51;88.36
61478;BME280;47345;52.334;10.392;2023-02-17T09:52:19;100620.85;;;10.53;88.32
61478;BME280;47345;52.334;10.392;2023-02-17T09:55:02;100622.27;;;10.56;88.35
61478;BME280;47345;52.334;10.392;2023-02-17T09:57:36;100618.20;;;10.59;88.32
61478;BME280;47345;52.334;10.392;2023-02-17T10:00:16;100620.25;;;10.62;88.47
61478;BME280;47345;52.334;10.392;2023-02-17T10:02:56;100616.79;;;10.65;88.47
61478;BME280;47345;52.334;10.392;2023-02-17T10:05:34;100614.86;;;10.69;88.46
61478;BME280;47345;52.334;10.392;2023-02-17T10:08:11;100613.17;;;10.72;88.47
61478;BME280;47345;52.334;10.392;2023-02-17T10:10:49;100610.35;;;10.75;88.49
61478;BME280;47345;52.334;10.392;2023-02-17T10:13:26;100613.34;;;10.78;88.47
61478;BME280;47345;52.334;10.392;2023-02-17T10:16:05;100606.27;;;10.82;88.55
61478;BME280;47345;52.334;10.392;2023-02-17T10:18:44;100596.63;;;10.86;88.55
61478;BME280;47345;52.334;10.392;2023-02-17T10:21:24;100593.64;;;10.89;88.56
61478;BME280;47345;52.334;10.392;2023-02-17T10:23:59;100586.92;;;10.92;88.59
61478;BME280;47345;52.334;10.392;2023-02-17T10:26:50;100584.73;;;10.95;88.61
61478;BME280;47345;52.334;10.392;2023-02-17T10:29:33;100580.19;;;10.97;88.62
61478;BME280;47345;52.334;10.392;2023-02-17T10:32:17;100580.23;;;10.99;88.52
61478;BME280;47345;52.334;10.392;2023-02-17T10:35:06;100572.04;;;11.02;88.65
61478;BME280;47345;52.334;10.392;2023-02-17T10:37:47;100567.86;;;11.04;88.69
61478;BME280;47345;52.334;10.392;2023-02-17T10:40:23;100565.63;;;11.06;88.69
61478;BME280;47345;52.334;10.392;2023-02-17T10:42:59;100561.96;;;11.07;88.76
61478;BME280;47345;52.334;10.392;2023-02-17T10:45:39;100568.67;;;11.09;88.89
61478;BME280;47345;52.334;10.392;2023-02-17T10:48:16;100561.92;;;11.10;89.02
61478;BME280;47345;52.334;10.392;2023-02-17T10:50:50;100562.96;;;11.12;89.08
61478;BME280;47345;52.334;10.392;2023-02-17T10:53:27;100564.88;;;11.14;89.22
61478;BME280;47345;52.334;10.392;2023-02-17T10:56:05;100569.20;;;11.17;89.20
61478;BME280;47345;52.334;10.392;2023-02-17T10:58:48;100563.48;;;11.19;89.18
61478;BME280;47345;52.334;10.392;2023-02-17T11:01:22;100566.53;;;11.23;89.23
61478;BME280;47345;52.334;10.392;2023-02-17T11:04:06;100559.62;;;11.27;89.31
61478;BME280;47345;52.334;10.392;2023-02-17T11:06:46;100552.53;;;11.30;89.15
61478;BME280;47345;52.334;10.392;2023-02-17T11:09:21;100544.58;;;11.35;89.13
61478;BME280;47345;52.334;10.392;2023-02-17T11:12:01;100550.98;;;11.39;88.98
61478;BME280;47345;52.334;10.392;2023-02-17T11:14:34;100543.67;;;11.43;88.83
61478;BME280;47345;52.334;10.392;2023-02-17T11:17:17;100550.44;;;11.47;88.73
61478;BME280;47345;52.334;10.392;2023-02-17T11:20:01;100535.02;;;11.47;88.63
61478;BME280;47345;52.334;10.392;2023-02-17T11:22:40;100533.52;;;11.51;88.52
61478;BME280;47345;52.334;10.392;2023-02-17T11:25:24;100534.48;;;11.52;88.44
61478;BME280;47345;52.334;10.392;2023-02-17T11:27:58;100528.92;;;11.53;88.28
61478;BME280;47345;52.334;10.392;2023-02-17T11:30:32;100526.85;;;11.55;88.17
61478;BME280;47345;52.334;10.392;2023-02-17T11:33:19;100515.66;;;11.57;88.07
61478;BME280;47345;52.334;10.392;2023-02-17T11:35:54;100516.20;;;11.59;87.91
61478;BME280;47345;52.334;10.392;2023-02-17T11:38:33;100501.80;;;11.63;87.85
61478;BME280;47345;52.334;10.392;2023-02-17T11:41:07;100503.39;;;11.69;87.88
61478;BME280;47345;52.334;10.392;2023-02-17T11:43:49;100505.79;;;11.77;87.70
61478;BME280;47345;52.334;10.392;2023-02-17T11:46:30;100501.06;;;11.85;87.51
61478;BME280;47345;52.334;10.392;2023-02-17T11:49:40;100493.55;;;11.91;86.98
61478;BME280;47345;52.334;10.392;2023-02-17T11:52:33;100494.80;;;11.95;86.65
61478;BME280;47345;52.334;10.392;2023-02-17T11:55:20;100487.14;;;12.02;86.21
61478;BME280;47345;52.334;10.392;2023-02-17T11:58:11;100473.98;;;12.05;85.89
61478;BME280;47345;52.334;10.392;2023-02-17T12:00:54;100456.45;;;12.10;85.36
61478;BME280;47345;52.334;10.392;2023-02-17T12:04:06;100463.81;;;12.16;85.06
61478;BME280;47345;52.334;10.392;2023-02-17T12:06:55;100457.98;;;12.21;84.31
61478;BME280;47345;52.334;10.392;2023-02-17T12:09:39;100447.20;;;12.23;83.97
61478;BME280;47345;52.334;10.392;2023-02-17T12:12:24;100444.45;;;12.25;83.93
61478;BME280;47345;52.334;10.392;2023-02-17T12:15:14;100442.70;;;12.27;83.83
61478;BME280;47345;52.334;10.392;2023-02-17T12:17:58;100449.98;;;12.28;83.39
61478;BME280;47345;52.334;10.392;2023-02-17T12:20:43;100455.70;;;12.31;83.26
61478;BME280;47345;52.334;10.392;2023-02-17T12:23:36;100453.86;;;12.35;83.28
61478;BME280;47345;52.334;10.392;2023-02-17T12:26:21;100449.81;;;12.41;82.99
61478;BME280;47345;52.334;10.392;2023-02-17T12:29:14;100450.45;;;12.47;82.32
61478;BME280;47345;52.334;10.392;2023-02-17T12:32:16;100450.08;;;12.53;82.28
61478;BME280;47345;52.334;10.392;2023-02-17T12:34:56;100448.08;;;12.59;82.09
61478;BME280;47345;52.334;10.392;2023-02-17T12:37:33;100446.64;;;12.62;81.46
61478;BME280;47345;52.334;10.392;2023-02-17T12:40:19;100454.63;;;12.65;81.58
61478;BME280;47345;52.334;10.392;2023-02-17T12:42:58;100460.11;;;12.69;81.47
61478;BME280;47345;52.334;10.392;2023-02-17T12:45:37;100465.36;;;12.72;81.05
61478;BME280;47345;52.334;10.392;2023-02-17T12:48:17;100474.31;;;12.72;80.39
61478;BME280;47345;52.334;10.392;2023-02-17T12:50:57;100474.38;;;12.71;80.14
61478;BME280;47345;52.334;10.392;2023-02-17T12:53:42;100488.23;;;12.69;79.91
61478;BME280;47345;52.334;10.392;2023-02-17T12:56:45;100489.77;;;12.66;79.80
61478;BME280;47345;52.334;10.392;2023-02-17T12:59:24;100493.81;;;12.62;79.44
61478;BME280;47345;52.334;10.392;2023-02-17T13:02:01;100491.98;;;12.58;79.43
61478;BME280;47345;52.334;10.392;2023-02-17T13:04:35;100489.42;;;12.53;79.29
61478;BME280;47345;52.334;10.392;2023-02-17T13:07:16;100487.01;;;12.49;79.37
61478;BME280;47345;52.334;10.392;2023-02-17T13:09:52;100487.29;;;12.45;79.67
61478;BME280;47345;52.334;10.392;2023-02-17T13:12:42;100481.96;;;12.43;79.82
61478;BME280;47345;52.334;10.392;2023-02-17T13:15:35;100477.47;;;12.39;79.55
61478;BME280;47345;52.334;10.392;2023-02-17T13:18:12;100472.69;;;12.37;79.94
61478;BME280;47345;52.334;10.392;2023-02-17T13:20:54;100471.39;;;12.36;80.00
61478;BME280;47345;52.334;10.392;2023-02-17T13:23:38;100475.92;;;12.34;80.16
61478;BME280;47345;52.334;10.392;2023-02-17T13:26:28;100486.41;;;12.32;80.21
61478;BME280;47345;52.334;10.392;2023-02-17T13:29:31;100497.94;;;12.31;80.13
61478;BME280;47345;52.334;10.392;2023-02-17T13:32:06;100497.23;;;12.28;80.23
61478;BME280;47345;52.334;10.392;2023-02-17T13:34:42;100501.09;;;12.28;80.06
61478;BME280;47345;52.334;10.392;2023-02-17T13:37:22;100512.99;;;12.26;80.01